createdAt,value
2022-11-13T00:00:32.891Z,78.05
2022-11-13T00:03:20.254Z,78.37
2022-11-13T00:06:10.419Z,77.53
2022-11-13T00:08:57.745Z,77.78
2022-11-13T00:11:45.225Z,77.78
2022-11-13T00:14:32.524Z,78.18
2022-11-13T00:17:20.119Z,77.20
2022-11-13T00:20:10.071Z,77.41
2022-11-13T00:22:57.667Z,77.76
2022-11-13T00:25:45.252Z,77.58
2022-11-13T00:28:32.767Z,77.29
2022-11-13T00:31:20.201Z,77.28
2022-11-13T00:34:33.198Z,78.08
2022-11-13T00:36:56.088Z,78.05
2022-11-13T00:39:43.639Z,78.28
2022-11-13T00:42:30.803Z,77.69
2022-11-13T00:45:18.465Z,77.75
2022-11-13T00:48:08.159Z,77.75
2022-11-13T00:50:55.821Z,77.24
2022-11-13T00:53:43.370Z,77.74
2022-11-13T00:56:31.130Z,77.26
2022-11-13T00:59:18.625Z,77.09
2022-11-13T01:02:09.985Z,76.75
2022-11-13T01:04:57.143Z,78.24
2022-11-13T01:07:45.040Z,77.49
2022-11-13T01:10:33.115Z,77.54
2022-11-13T01:13:20.425Z,77.52
2022-11-13T01:16:12.681Z,77.62
2022-11-13T01:19:00.625Z,77.86
2022-11-13T01:21:47.833Z,77.84
2022-11-13T01:24:35.090Z,78.88
2022-11-13T01:27:22.435Z,78.01
2022-11-13T01:30:12.206Z,78.33
2022-11-13T01:32:59.886Z,78.33
2022-11-13T01:35:47.300Z,78.30
2022-11-13T01:38:36.846Z,79.46
2022-11-13T01:41:32.903Z,78.70
2022-11-13T01:44:21.333Z,78.49
2022-11-13T01:47:10.259Z,79.36
2022-11-13T01:50:01.013Z,79.02
2022-11-13T01:52:48.733Z,78.58
2022-11-13T01:55:36.244Z,78.53
2022-11-13T01:58:23.564Z,78.57
2022-11-13T02:01:10.748Z,78.72
2022-11-13T02:03:58.593Z,79.28
2022-11-13T02:06:52.523Z,79.41
2022-11-13T02:09:43.242Z,79.22
2022-11-13T02:12:33.609Z,78.57
2022-11-13T02:15:24.077Z,78.91
2022-11-13T02:18:12.737Z,78.62
2022-11-13T02:21:12.601Z,79.09
2022-11-13T02:24:03.030Z,79.38
2022-11-13T02:26:53.942Z,79.63
2022-11-13T02:29:41.432Z,79.01
2022-11-13T02:32:29.135Z,79.01
2022-11-13T02:35:34.437Z,78.16
2022-11-13T02:38:21.685Z,78.16
2022-11-13T02:41:08.999Z,78.16
2022-11-13T02:43:56.943Z,78.86
2022-11-13T02:46:45.069Z,78.90
2022-11-13T02:49:32.970Z,79.54
2022-11-13T02:52:20.484Z,78.59
2022-11-13T02:55:08.883Z,78.09
2022-11-13T02:57:56.320Z,78.52
2022-11-13T03:00:44.072Z,78.72
2022-11-13T03:03:56.640Z,79.31
2022-11-13T03:06:21.381Z,79.51
2022-11-13T03:09:08.931Z,79.51
2022-11-13T03:11:56.538Z,78.83
2022-11-13T03:14:43.821Z,79.04
2022-11-13T03:17:35.061Z,79.02
2022-11-13T03:20:22.952Z,78.67
2022-11-13T03:23:10.578Z,78.51
2022-11-13T03:25:57.931Z,78.10
2022-11-13T03:28:45.663Z,77.33
2022-11-13T03:31:33.290Z,77.68
2022-11-13T03:34:20.519Z,77.42
2022-11-13T03:37:08.180Z,77.89
2022-11-13T03:39:56.217Z,78.39
2022-11-13T03:42:44.007Z,78.42
2022-11-13T03:45:32.165Z,78.19
2022-11-13T03:48:19.209Z,78.21
2022-11-13T03:51:06.491Z,78.07
2022-11-13T03:53:53.886Z,78.37
2022-11-13T03:56:41.959Z,78.04
2022-11-13T03:59:29.291Z,78.33
2022-11-13T04:02:16.535Z,78.16
2022-11-13T04:05:03.925Z,79.39
2022-11-13T04:07:51.801Z,78.85
2022-11-13T04:10:39.597Z,78.72
2022-11-13T04:13:27.281Z,78.76
2022-11-13T04:16:14.554Z,78.43
2022-11-13T04:19:01.889Z,78.51
2022-11-13T04:21:49.371Z,78.30
2022-11-13T04:24:36.809Z,78.59
2022-11-13T04:27:24.453Z,78.63
2022-11-13T04:30:13.995Z,78.23
2022-11-13T04:33:01.374Z,77.85
2022-11-13T04:35:49.122Z,78.40
2022-11-13T04:38:37.177Z,78.40
2022-11-13T04:41:42.158Z,78.87
2022-11-13T04:44:29.587Z,78.79
2022-11-13T04:47:17.811Z,78.85
2022-11-13T04:50:06.986Z,78.15
2022-11-13T04:52:54.345Z,77.72
2022-11-13T04:55:41.943Z,77.98
2022-11-13T04:58:29.530Z,78.32
2022-11-13T05:01:17.330Z,78.12
2022-11-13T05:04:06.228Z,77.21
2022-11-13T05:06:53.699Z,76.93
2022-11-13T05:09:41.238Z,77.84
2022-11-13T05:12:28.856Z,77.90
2022-11-13T05:15:15.919Z,77.90
2022-11-13T05:18:03.281Z,77.51
2022-11-13T05:20:51.035Z,77.90
2022-11-13T05:23:38.404Z,77.69
2022-11-13T05:26:26.318Z,77.42
2022-11-13T05:29:13.613Z,77.18
2022-11-13T05:32:01.053Z,77.19
2022-11-13T05:34:48.702Z,77.09
2022-11-13T05:37:36.145Z,78.04
2022-11-13T05:40:23.722Z,78.03
2022-11-13T05:43:10.949Z,77.87
2022-11-13T05:46:04.769Z,77.17
2022-11-13T05:48:58.124Z,78.24
2022-11-13T05:51:45.549Z,77.91
2022-11-13T05:54:32.846Z,78.60
2022-11-13T05:57:20.294Z,77.80
2022-11-13T06:00:08.540Z,77.66
2022-11-13T06:02:55.886Z,77.51
2022-11-13T06:05:43.551Z,77.51
2022-11-13T06:08:31.324Z,76.79
2022-11-13T06:11:21.720Z,78.24
2022-11-13T06:14:08.991Z,78.20
2022-11-13T06:16:56.537Z,77.90
2022-11-13T06:19:44.847Z,77.71
2022-11-13T06:22:32.277Z,77.63
2022-11-13T06:25:19.713Z,77.73
2022-11-13T06:28:08.136Z,78.48
2022-11-13T06:30:55.430Z,77.06
2022-11-13T06:33:43.807Z,78.00
2022-11-13T06:36:36.879Z,78.30
2022-11-13T06:39:24.611Z,78.34
2022-11-13T06:42:13.117Z,78.34
2022-11-13T06:45:00.601Z,78.67
2022-11-13T06:47:48.220Z,78.29
2022-11-13T06:50:35.680Z,78.00
2022-11-13T06:53:23.090Z,77.76
2022-11-13T06:56:12.518Z,78.05
2022-11-13T06:58:59.798Z,78.28
2022-11-13T07:01:47.131Z,78.71
2022-11-13T07:04:34.315Z,78.05
2022-11-13T07:07:22.363Z,78.10
2022-11-13T07:10:12.358Z,78.74
2022-11-13T07:13:01.201Z,78.84
2022-11-13T07:15:48.781Z,78.08
2022-11-13T07:18:36.502Z,78.08
2022-11-13T07:21:25.460Z,77.74
2022-11-13T07:24:16.933Z,78.04
2022-11-13T07:27:03.383Z,77.81
2022-11-13T07:29:50.485Z,77.81
2022-11-13T07:32:38.284Z,77.08
2022-11-13T07:35:25.644Z,77.90
2022-11-13T07:38:11.817Z,78.43
2022-11-13T07:40:59.845Z,78.47
2022-11-13T07:43:47.492Z,78.34
2022-11-13T07:46:34.929Z,77.67
2022-11-13T07:49:22.475Z,77.64
2022-11-13T07:52:12.067Z,77.31
2022-11-13T07:54:59.609Z,76.95
2022-11-13T07:57:46.684Z,77.49
2022-11-13T08:00:35.977Z,77.51
2022-11-13T08:03:23.458Z,76.90
2022-11-13T08:06:13.551Z,76.55
2022-11-13T08:09:00.729Z,76.76
2022-11-13T08:11:48.391Z,76.30
2022-11-13T08:14:36.363Z,75.80
2022-11-13T08:17:24.067Z,75.94
2022-11-13T08:20:13.365Z,75.93
2022-11-13T08:23:02.535Z,75.01
2022-11-13T08:25:50.361Z,74.53
2022-11-13T08:28:38.145Z,75.21
2022-11-13T08:31:25.804Z,75.44
2022-11-13T08:34:14.603Z,74.81
2022-11-13T08:37:02.095Z,74.83
2022-11-13T08:39:50.047Z,74.96
2022-11-13T08:42:38.127Z,74.46
2022-11-13T08:45:25.665Z,73.87
2022-11-13T08:48:14.951Z,73.26
2022-11-13T08:51:02.635Z,72.86
2022-11-13T08:53:50.233Z,72.81
2022-11-13T08:56:38.168Z,72.00
2022-11-13T08:59:27.163Z,71.90
2022-11-13T09:02:16.976Z,70.67
2022-11-13T09:05:05.398Z,70.56
2022-11-13T09:07:54.958Z,68.29
2022-11-13T09:10:43.010Z,67.69
2022-11-13T09:13:30.485Z,67.26
2022-11-13T09:16:18.138Z,66.47
2022-11-13T09:19:05.749Z,65.21
2022-11-13T09:21:53.589Z,65.20
2022-11-13T09:24:40.960Z,63.20
2022-11-13T09:27:29.280Z,63.11
2022-11-13T09:30:18.086Z,61.78
2022-11-13T09:33:05.929Z,61.78
2022-11-13T09:35:53.032Z,59.57
2022-11-13T09:38:40.717Z,59.19
2022-11-13T09:41:31.263Z,60.88
2022-11-13T09:44:41.418Z,59.27
2022-11-13T09:47:40.783Z,57.21
2022-11-13T09:50:31.104Z,57.04
2022-11-13T09:53:19.393Z,57.48
2022-11-13T09:56:18.789Z,57.21
2022-11-13T09:59:12.192Z,58.01
2022-11-13T10:02:37.007Z,58.14
2022-11-13T10:05:30.054Z,58.18
2022-11-13T10:08:25.802Z,55.83
2022-11-13T10:11:28.244Z,56.20
2022-11-13T10:14:24.402Z,56.20
2022-11-13T10:17:26.649Z,55.96
2022-11-13T10:20:18.898Z,54.57
2022-11-13T10:23:14.778Z,52.31
2022-11-13T10:26:20.254Z,51.58
2022-11-13T10:29:16.680Z,55.15
2022-11-13T10:32:27.719Z,51.41
2022-11-13T10:35:26.914Z,50.27
2022-11-13T10:38:19.618Z,51.21
2022-11-13T10:41:09.991Z,47.23
2022-11-13T10:44:05.999Z,46.90
2022-11-13T10:47:05.043Z,46.91
2022-11-13T10:49:53.207Z,45.40
2022-11-13T10:52:46.136Z,45.40
2022-11-13T10:55:41.704Z,46.94
2022-11-13T10:58:29.867Z,50.52
2022-11-13T11:01:23.674Z,53.24
2022-11-13T11:04:30.081Z,52.03
2022-11-13T11:07:25.192Z,53.07
2022-11-13T11:10:24.740Z,46.98
2022-11-13T11:13:15.533Z,44.93
2022-11-13T11:16:05.269Z,42.30
2022-11-13T11:18:59.079Z,45.77
2022-11-13T11:21:48.684Z,45.77
2022-11-13T11:24:39.371Z,48.98
2022-11-13T11:27:32.687Z,49.89
2022-11-13T11:30:22.685Z,49.72
2022-11-13T11:33:27.860Z,44.17
2022-11-13T11:36:33.350Z,41.48
2022-11-13T11:39:32.678Z,44.14
2022-11-13T11:42:41.121Z,44.14
2022-11-13T11:45:31.678Z,41.24
2022-11-13T11:48:31.747Z,39.60
2022-11-13T11:51:28.754Z,39.64
2022-11-13T11:54:42.120Z,38.13
2022-11-13T11:57:48.959Z,39.83
2022-11-13T12:00:39.570Z,40.23
2022-11-13T12:03:47.686Z,40.23
2022-11-13T12:06:43.763Z,39.82
2022-11-13T12:09:33.939Z,38.13
2022-11-13T12:12:43.417Z,38.39
2022-11-13T12:15:42.379Z,38.85
2022-11-13T12:18:48.522Z,39.31
2022-11-13T12:21:39.376Z,39.65
2022-11-13T12:24:50.149Z,38.63
2022-11-13T12:27:46.356Z,39.96
2022-11-13T12:30:36.621Z,39.96
2022-11-13T12:33:39.158Z,38.76
2022-11-13T12:36:26.576Z,38.97
2022-11-13T12:39:19.797Z,39.31
2022-11-13T12:42:19.560Z,39.27
2022-11-13T12:45:17.381Z,39.19
2022-11-13T12:48:13.104Z,38.63
2022-11-13T12:51:09.303Z,37.24
2022-11-13T12:53:57.557Z,39.34
2022-11-13T12:56:45.916Z,38.92
2022-11-13T12:59:36.546Z,37.26
2022-11-13T13:03:00.625Z,36.55
2022-11-13T13:05:53.990Z,36.18
2022-11-13T13:09:00.234Z,35.19
2022-11-13T13:12:13.282Z,36.82
2022-11-13T13:15:06.818Z,35.08
2022-11-13T13:18:12.245Z,35.69
2022-11-13T13:21:03.083Z,34.36
2022-11-13T13:23:53.373Z,34.58
2022-11-13T13:26:47.899Z,33.11
2022-11-13T13:29:35.344Z,31.73
2022-11-13T13:32:26.020Z,31.73
2022-11-13T13:35:22.726Z,33.04
2022-11-13T13:38:16.381Z,34.28
2022-11-13T13:41:22.578Z,33.04
2022-11-13T13:44:21.953Z,35.03
2022-11-13T13:47:29.577Z,34.80
2022-11-13T13:50:23.586Z,36.92
2022-11-13T13:53:13.581Z,36.08
2022-11-13T13:56:02.498Z,37.12
2022-11-13T13:58:50.914Z,37.01
2022-11-13T14:01:38.665Z,36.52
2022-11-13T14:04:28.957Z,36.08
2022-11-13T14:07:28.443Z,36.08
2022-11-13T14:10:20.125Z,35.97
2022-11-13T14:13:11.278Z,35.96
2022-11-13T14:16:03.022Z,36.39
2022-11-13T14:18:50.898Z,36.63
2022-11-13T14:21:38.527Z,36.58
2022-11-13T14:24:29.068Z,36.46
2022-11-13T14:27:22.544Z,36.08
2022-11-13T14:30:12.842Z,34.91
2022-11-13T14:33:02.467Z,34.06
2022-11-13T14:35:55.328Z,34.06
2022-11-13T14:38:51.572Z,34.74
2022-11-13T14:41:40.519Z,34.96
2022-11-13T14:44:33.023Z,34.86
2022-11-13T14:47:27.064Z,34.74
2022-11-13T14:50:27.171Z,33.83
2022-11-13T14:53:14.774Z,34.55
2022-11-13T14:56:11.472Z,33.39
2022-11-13T14:59:19.743Z,33.85
2022-11-13T15:02:06.889Z,34.52
2022-11-13T15:04:53.992Z,33.92
2022-11-13T15:07:46.108Z,35.17
2022-11-13T15:10:33.758Z,37.13
2022-11-13T15:13:21.117Z,38.12
2022-11-13T15:16:10.337Z,39.76
2022-11-13T15:19:03.386Z,40.38
2022-11-13T15:22:20.275Z,40.59
2022-11-13T15:24:40.066Z,41.36
2022-11-13T15:27:28.194Z,41.04
2022-11-13T15:30:19.451Z,41.67
2022-11-13T15:33:14.661Z,41.51
2022-11-13T15:36:02.091Z,42.29
2022-11-13T15:38:49.760Z,43.17
2022-11-13T15:41:37.610Z,44.10
2022-11-13T15:44:25.029Z,45.29
2022-11-13T15:47:27.315Z,46.39
2022-11-13T15:50:17.169Z,47.07
2022-11-13T15:53:05.630Z,47.70
2022-11-13T15:55:53.614Z,49.26
2022-11-13T15:58:40.708Z,49.59
2022-11-13T16:01:28.313Z,51.17
2022-11-13T16:04:16.759Z,51.17
2022-11-13T16:07:04.042Z,51.60
2022-11-13T16:09:51.368Z,52.75
2022-11-13T16:12:38.912Z,54.08
2022-11-13T16:15:26.667Z,54.71
2022-11-13T16:18:17.512Z,55.19
2022-11-13T16:21:04.908Z,57.33
2022-11-13T16:23:52.393Z,57.33
2022-11-13T16:26:41.653Z,57.04
2022-11-13T16:29:30.810Z,57.07
2022-11-13T16:32:18.955Z,57.38
2022-11-13T16:35:09.552Z,58.72
2022-11-13T16:37:57.004Z,58.40
2022-11-13T16:40:45.538Z,59.98
2022-11-13T16:43:33.104Z,58.82
2022-11-13T16:46:23.617Z,58.82
2022-11-13T16:49:16.894Z,58.82
2022-11-13T16:52:04.329Z,58.79
2022-11-13T16:54:51.663Z,58.96
2022-11-13T16:57:39.201Z,58.53
2022-11-13T17:00:29.313Z,59.52
2022-11-13T17:03:16.862Z,60.39
2022-11-13T17:06:05.783Z,60.81
2022-11-13T17:08:55.614Z,61.38
2022-11-13T17:11:42.944Z,61.25
2022-11-13T17:14:30.512Z,61.45
2022-11-13T17:17:18.232Z,62.10
2022-11-13T17:20:05.906Z,64.04
2022-11-13T17:22:53.529Z,64.43
2022-11-13T17:25:41.138Z,63.73
2022-11-13T17:28:28.489Z,65.09
2022-11-13T17:31:16.123Z,65.09
2022-11-13T17:34:03.617Z,64.75
2022-11-13T17:36:51.140Z,64.60
2022-11-13T17:39:38.730Z,65.15
2022-11-13T17:42:28.075Z,64.96
2022-11-13T17:45:15.500Z,65.13
2022-11-13T17:48:02.700Z,64.62
2022-11-13T17:51:00.887Z,64.62
2022-11-13T17:53:48.301Z,64.22
2022-11-13T17:56:37.557Z,64.99
2022-11-13T17:59:25.057Z,64.77
2022-11-13T18:02:13.567Z,65.33
2022-11-13T18:05:01.409Z,65.05
2022-11-13T18:07:48.987Z,64.88
2022-11-13T18:10:37.861Z,64.84
2022-11-13T18:13:25.318Z,64.84
2022-11-13T18:16:18.787Z,64.93
2022-11-13T18:19:09.170Z,65.05
2022-11-13T18:21:56.348Z,64.82
2022-11-13T18:24:44.272Z,64.52
2022-11-13T18:27:31.945Z,64.68
2022-11-13T18:30:20.164Z,65.74
2022-11-13T18:33:07.389Z,65.74
2022-11-13T18:35:56.673Z,66.34
2022-11-13T18:38:44.383Z,66.43
2022-11-13T18:41:32.780Z,66.38
2022-11-13T18:44:20.122Z,66.21
2022-11-13T18:47:08.056Z,66.60
2022-11-13T18:49:55.520Z,66.12
2022-11-13T18:52:43.297Z,66.04
2022-11-13T18:55:30.483Z,66.53
2022-11-13T18:58:17.864Z,66.45
2022-11-13T19:01:11.149Z,66.19
2022-11-13T19:04:21.776Z,66.28
2022-11-13T19:06:50.243Z,66.34
2022-11-13T19:09:39.471Z,66.64
2022-11-13T19:12:27.133Z,66.40
2022-11-13T19:15:14.990Z,66.40
2022-11-13T19:18:02.566Z,66.68
2022-11-13T19:20:50.086Z,67.47
2022-11-13T19:23:38.006Z,67.87
2022-11-13T19:26:26.072Z,67.87
2022-11-13T19:29:13.785Z,68.54
2022-11-13T19:32:01.657Z,67.96
2022-11-13T19:34:48.970Z,68.59
2022-11-13T19:37:36.933Z,69.17
2022-11-13T19:40:24.156Z,68.82
2022-11-13T19:43:11.335Z,68.35
2022-11-13T19:46:00.807Z,68.22
2022-11-13T19:48:50.300Z,68.22
2022-11-13T19:51:37.542Z,68.52
2022-11-13T19:54:24.559Z,68.72
2022-11-13T19:57:12.329Z,67.94
2022-11-13T19:59:59.974Z,69.29
2022-11-13T20:02:47.711Z,69.03
2022-11-13T20:05:34.786Z,68.31
2022-11-13T20:08:26.839Z,68.21
2022-11-13T20:11:14.883Z,68.59
2022-11-13T20:14:02.358Z,69.07
2022-11-13T20:16:49.495Z,68.65
2022-11-13T20:19:37.300Z,68.55
2022-11-13T20:22:24.834Z,69.70
2022-11-13T20:25:12.444Z,69.69
2022-11-13T20:28:00.208Z,69.79
2022-11-13T20:30:46.278Z,70.08
2022-11-13T20:33:35.178Z,69.92
2022-11-13T20:36:23.143Z,69.67
2022-11-13T20:39:11.058Z,69.62
2022-11-13T20:41:58.640Z,69.73
2022-11-13T20:44:46.369Z,69.41
2022-11-13T20:47:35.145Z,69.74
2022-11-13T20:50:22.630Z,70.16
2022-11-13T20:53:10.470Z,70.46
2022-11-13T20:55:58.102Z,69.73
2022-11-13T20:58:45.402Z,69.77
2022-11-13T21:01:34.678Z,69.88
2022-11-13T21:04:22.167Z,69.84
2022-11-13T21:07:09.638Z,70.20
2022-11-13T21:09:57.166Z,70.28
2022-11-13T21:12:44.537Z,70.50
2022-11-13T21:15:33.830Z,70.33
2022-11-13T21:18:21.436Z,69.90
2022-11-13T21:21:11.859Z,70.26
2022-11-13T21:23:59.907Z,70.59
2022-11-13T21:26:49.901Z,71.01
2022-11-13T21:29:37.677Z,70.41
2022-11-13T21:32:24.716Z,70.21
2022-11-13T21:35:12.379Z,70.24
2022-11-13T21:37:59.686Z,70.29
2022-11-13T21:40:48.943Z,70.07
2022-11-13T21:43:36.412Z,69.85
2022-11-13T21:46:25.520Z,70.10
2022-11-13T21:49:14.040Z,70.32
2022-11-13T21:52:01.624Z,71.46
2022-11-13T21:54:49.216Z,71.14
2022-11-13T21:57:36.641Z,70.69
2022-11-13T22:00:24.225Z,70.83
2022-11-13T22:03:11.559Z,70.65
2022-11-13T22:06:19.555Z,71.15
2022-11-13T22:09:15.599Z,70.79
2022-11-13T22:12:03.315Z,70.94
2022-11-13T22:14:50.676Z,70.96
2022-11-13T22:17:36.879Z,70.60
2022-11-13T22:20:24.508Z,70.90
2022-11-13T22:23:12.150Z,71.69
2022-11-13T22:26:01.977Z,71.69
2022-11-13T22:28:50.147Z,71.28
2022-11-13T22:31:38.209Z,70.97
2022-11-13T22:34:25.555Z,71.46
2022-11-13T22:37:13.093Z,71.46
2022-11-13T22:40:00.442Z,71.45
2022-11-13T22:42:47.607Z,71.99
2022-11-13T22:45:35.389Z,71.62
2022-11-13T22:48:22.500Z,72.10
2022-11-13T22:51:15.481Z,71.89
2022-11-13T22:54:04.486Z,72.08
2022-11-13T22:56:52.055Z,72.40
2022-11-13T22:59:39.559Z,71.89
2022-11-13T23:02:26.731Z,71.92
2022-11-13T23:05:14.041Z,71.95
2022-11-13T23:08:01.819Z,72.13
2022-11-13T23:10:54.305Z,71.91
2022-11-13T23:13:46.605Z,71.66
2022-11-13T23:16:34.699Z,71.69
2022-11-13T23:19:22.268Z,72.12
2022-11-13T23:22:09.537Z,72.36
2022-11-13T23:24:56.782Z,72.42
2022-11-13T23:27:43.931Z,72.00
2022-11-13T23:30:31.227Z,72.24
2022-11-13T23:33:18.638Z,72.20
2022-11-13T23:36:09.770Z,72.12
2022-11-13T23:38:56.931Z,72.66
2022-11-13T23:41:44.251Z,71.96
2022-11-13T23:44:31.613Z,72.13
2022-11-13T23:47:19.272Z,72.01
2022-11-13T23:50:08.418Z,72.61
2022-11-13T23:52:55.926Z,72.43
2022-11-13T23:55:44.160Z,72.12
2022-11-13T23:58:32.686Z,72.50
